Sunday, December 17, 2017, 2:40 PM EST
Back to Local

KMFD, Lahm Municipal Airport

Location: Mansfield, OH, United States Lat: 40.817
Local Time: 2:40 PM EST (19:40 GMT) Lon: -82.517
Time Zone: US/Eastern Elev: 1295 ft

Show me the last for .
Show Decoded

2017-12-17 13:52 METAR KMFD 171852Z 20006KT 10SM BKN075 OVC100 04/M01 A3008 RMK AO2 SLP197
                 T00391006 =
2017-12-17 12:52 METAR KMFD 171752Z 18003KT 10SM CLR 04/M01 A3009 RMK AO2 SLP200 T00391011 10039
                 21006 58021 =
2017-12-17 11:52 METAR KMFD 171652Z 16005KT 10SM CLR 03/M01 A3011 RMK AO2 SLP207 T00331011 =
2017-12-17 10:52 METAR KMFD 171552Z 19006KT 10SM CLR 03/M01 A3015 RMK AO2 SLP222 T00281011 =
2017-12-17 09:52 METAR KMFD 171452Z 19007KT 10SM CLR 02/M02 A3016 RMK AO2 SLP224 T00221017 50005
                 =
2017-12-17 08:52 METAR KMFD 171352Z 20008KT 10SM CLR 01/M02 A3017 RMK AO2 PRESRR SLP228 T00111017
                 =
2017-12-17 07:52 METAR KMFD 171252Z 19008KT 10SM CLR 00/M02 A3014 RMK AO2 SLP220 T00001022 =
2017-12-17 06:52 METAR KMFD 171152Z 19006KT 10SM CLR 00/M03 A3014 RMK AO2 SLP219 T00001033 10022
                 21011 50004 =
2017-12-17 05:52 METAR KMFD 171052Z AUTO 19008KT 10SM CLR M01/M03 A3015 RMK AO2 SLP221 T10061033
                 =
2017-12-17 04:52 METAR KMFD 170952Z AUTO 19007KT 10SM CLR M01/M04 A3014 RMK AO2 SLP218 T10111039
                 =
2017-12-17 03:52 METAR KMFD 170852Z AUTO 19006KT 10SM CLR M01/M04 A3013 RMK AO2 SLP214 T10111039
                 56001 =
2017-12-17 02:52 METAR KMFD 170752Z AUTO 21007KT 10SM CLR 01/M04 A3013 RMK AO2 SLP213 T00061039 =
2017-12-17 01:52 METAR KMFD 170652Z AUTO 22006KT 10SM CLR 01/M03 A3012 RMK AO2 SLP210 T00111033 =
2017-12-17 00:52 METAR KMFD 170552Z AUTO 22007KT 10SM CLR 02/M03 A3013 RMK AO2 SLP214 T00221028
                 10033 21022 51012 =
2017-12-16 23:52 METAR KMFD 170452Z AUTO 21005KT 10SM CLR 01/M04 A3012 RMK AO2 SLP210 T00061039
                 400561028 =
2017-12-16 22:52 METAR KMFD 170352Z 19004KT 10SM CLR M01/M04 A3011 RMK AO2 SLP210 T10111044 =
2017-12-16 21:52 METAR KMFD 170252Z 19005KT 10SM CLR M01/M04 A3010 RMK AO2 SLP204 T10061039 51010
                 =
2017-12-16 20:52 METAR KMFD 170152Z 18005KT 10SM CLR M01/M04 A3008 RMK AO2 SLP200 T10061039 =
2017-12-16 19:52 METAR KMFD 170052Z 18005KT 10SM CLR 01/M03 A3008 RMK AO2 SLP198 T00111033 =
2017-12-16 18:52 METAR KMFD 162352Z 20004KT 10SM CLR 03/M03 A3006 RMK AO2 SLP192 T00281028 10056
                 20017 53024 =
2017-12-16 17:52 METAR KMFD 162252Z 19005KT 10SM CLR 03/M03 A3004 RMK AO2 SLP184 T00331028 =
2017-12-16 16:52 METAR KMFD 162152Z 21005KT 10SM CLR 04/M02 A3001 RMK AO2 SLP173 T00391022 =
2017-12-16 15:52 METAR KMFD 162052Z 22008KT 10SM CLR 06/M02 A2999 RMK AO2 SLP166 T00561017 53004
                 =
2017-12-16 14:52 METAR KMFD 161952Z 23013G19KT 10SM CLR 06/M02 A2998 RMK AO2 SLP161 T00561022 =

Support USWX by starting your Amazon purchase here.